sensor_id;sensor_type;location;lat;lon;timestamp;pressure;altitude;pressure_sealevel;temperature;humidity
5138;BME280;53959;53.626;11.410;2024-01-30T00:00:33;-25672.72;;;11.14;nan
5138;BME280;53959;53.626;11.410;2024-01-30T00:02:58;-25690.59;;;11.69;nan
5138;BME280;53959;53.626;11.410;2024-01-30T00:05:24;-25688.25;;;11.62;nan
5138;BME280;53959;53.626;11.410;2024-01-30T00:07:50;-25692.63;;;11.75;nan
5138;BME280;53959;53.626;11.410;2024-01-30T00:10:15;-25690.44;;;11.68;nan
5138;BME280;53959;53.626;11.410;2024-01-30T00:12:40;-25673.03;;;11.15;nan
5138;BME280;53959;53.626;11.410;2024-01-30T00:15:06;-25666.00;;;10.94;nan
5138;BME280;53959;53.626;11.410;2024-01-30T00:17:35;-25689.59;;;11.66;nan
5138;BME280;53959;53.626;11.410;2024-01-30T00:20:00;-25675.22;;;11.22;nan
5138;BME280;53959;53.626;11.410;2024-01-30T00:22:26;-25663.00;;;10.85;nan
5138;BME280;53959;53.626;11.410;2024-01-30T00:24:51;-25646.09;;;10.33;nan
5138;BME280;53959;53.626;11.410;2024-01-30T00:27:16;-25676.22;;;11.25;nan
5138;BME280;53959;53.626;11.410;2024-01-30T00:29:42;-25718.53;;;12.54;nan
5138;BME280;53959;53.626;11.410;2024-01-30T00:32:07;-25707.66;;;12.21;nan
5138;BME280;53959;53.626;11.410;2024-01-30T00:34:32;-25710.50;;;12.30;nan
5138;BME280;53959;53.626;11.410;2024-01-30T00:36:57;-25685.41;;;11.53;nan
5138;BME280;53959;53.626;11.410;2024-01-30T00:39:23;-25673.03;;;11.15;nan
5138;BME280;53959;53.626;11.410;2024-01-30T00:41:48;-25659.31;;;10.74;nan
5138;BME280;53959;53.626;11.410;2024-01-30T00:44:14;-25702.66;;;12.06;nan
5138;BME280;53959;53.626;11.410;2024-01-30T00:46:39;-25696.13;;;11.86;nan
5138;BME280;53959;53.626;11.410;2024-01-30T00:49:04;-25666.69;;;10.96;nan
5138;BME280;53959;53.626;11.410;2024-01-30T00:51:29;-25655.63;;;10.62;nan
5138;BME280;53959;53.626;11.410;2024-01-30T00:53:55;-25697.13;;;11.89;nan
5138;BME280;53959;53.626;11.410;2024-01-30T00:56:20;-25682.25;;;11.43;nan
5138;BME280;53959;53.626;11.410;2024-01-30T00:58:46;-25672.53;;;11.14;nan
5138;BME280;53959;53.626;11.410;2024-01-30T01:01:11;-25706.50;;;12.18;nan
5138;BME280;53959;53.626;11.410;2024-01-30T01:03:37;-25702.16;;;12.04;nan
5138;BME280;53959;53.626;11.410;2024-01-30T01:06:02;-25706.84;;;12.19;nan
5138;BME280;53959;53.626;11.410;2024-01-30T01:08:28;-25675.56;;;11.23;nan
5138;BME280;53959;53.626;11.410;2024-01-30T01:10:53;-25654.47;;;10.59;nan
5138;BME280;53959;53.626;11.410;2024-01-30T01:13:18;-25676.38;;;11.26;nan
5138;BME280;53959;53.626;11.410;2024-01-30T01:15:44;-25656.81;;;10.66;nan
5138;BME280;53959;53.626;11.410;2024-01-30T01:18:09;-25673.88;;;11.18;nan
5138;BME280;53959;53.626;11.410;2024-01-30T01:20:35;-25700.31;;;11.99;nan
5138;BME280;53959;53.626;11.410;2024-01-30T01:23:00;-25654.97;;;10.60;nan
5138;BME280;53959;53.626;11.410;2024-01-30T01:25:26;-25670.38;;;11.07;nan
5138;BME280;53959;53.626;11.410;2024-01-30T01:27:51;-25680.91;;;11.39;nan
5138;BME280;53959;53.626;11.410;2024-01-30T01:30:18;-25643.06;;;10.24;nan
5138;BME280;53959;53.626;11.410;2024-01-30T01:32:51;-25656.47;;;10.65;nan
5138;BME280;53959;53.626;11.410;2024-01-30T01:35:23;-25665.00;;;10.91;nan
5138;BME280;53959;53.626;11.410;2024-01-30T01:37:52;-25674.72;;;11.21;nan
5138;BME280;53959;53.626;11.410;2024-01-30T01:40:24;-25692.63;;;11.75;nan
5138;BME280;53959;53.626;11.410;2024-01-30T01:42:53;-25707.50;;;12.21;nan
5138;BME280;53959;53.626;11.410;2024-01-30T01:45:19;-25699.13;;;11.95;nan
5138;BME280;53959;53.626;11.410;2024-01-30T01:47:47;-25667.69;;;10.99;nan
5138;BME280;53959;53.626;11.410;2024-01-30T01:50:15;-25672.38;;;11.13;nan
5138;BME280;53959;53.626;11.410;2024-01-30T01:52:44;-25674.88;;;11.21;nan
5138;BME280;53959;53.626;11.410;2024-01-30T01:55:10;-25679.91;;;11.36;nan
5138;BME280;53959;53.626;11.410;2024-01-30T01:57:37;-25652.13;;;10.52;nan
5138;BME280;53959;53.626;11.410;2024-01-30T02:00:03;-25656.63;;;10.65;nan
5138;BME280;53959;53.626;11.410;2024-01-30T02:02:35;-25695.97;;;11.85;nan
5138;BME280;53959;53.626;11.410;2024-01-30T02:05:01;-25672.03;;;11.12;nan
5138;BME280;53959;53.626;11.410;2024-01-30T02:07:30;-25675.38;;;11.23;nan
5138;BME280;53959;53.626;11.410;2024-01-30T02:09:56;-25689.44;;;11.65;nan
5138;BME280;53959;53.626;11.410;2024-01-30T02:12:21;-25666.19;;;10.94;nan
5138;BME280;53959;53.626;11.410;2024-01-30T02:14:47;-25660.31;;;10.77;nan
5138;BME280;53959;53.626;11.410;2024-01-30T02:17:14;-25699.66;;;11.97;nan
5138;BME280;53959;53.626;11.410;2024-01-30T02:19:39;-25685.59;;;11.54;nan
5138;BME280;53959;53.626;11.410;2024-01-30T02:22:05;-25698.13;;;11.92;nan
5138;BME280;53959;53.626;11.410;2024-01-30T02:24:31;-25692.94;;;11.76;nan
5138;BME280;53959;53.626;11.410;2024-01-30T02:26:57;-25678.91;;;11.33;nan
5138;BME280;53959;53.626;11.410;2024-01-30T02:29:22;-25674.38;;;11.19;nan
5138;BME280;53959;53.626;11.410;2024-01-30T02:31:48;-25666.19;;;10.94;nan
5138;BME280;53959;53.626;11.410;2024-01-30T02:34:13;-25687.09;;;11.58;nan
5138;BME280;53959;53.626;11.410;2024-01-30T02:36:42;-25654.63;;;10.59;nan
5138;BME280;53959;53.626;11.410;2024-01-30T02:39:08;-25708.50;;;12.24;nan
5138;BME280;53959;53.626;11.410;2024-01-30T02:41:33;-25700.81;;;12.00;nan
5138;BME280;53959;53.626;11.410;2024-01-30T02:43:59;-25677.72;;;11.30;nan
5138;BME280;53959;53.626;11.410;2024-01-30T02:46:24;-25695.63;;;11.84;nan
5138;BME280;53959;53.626;11.410;2024-01-30T02:48:50;-25683.41;;;11.47;nan
5138;BME280;53959;53.626;11.410;2024-01-30T02:51:16;-25688.94;;;11.64;nan
5138;BME280;53959;53.626;11.410;2024-01-30T02:53:42;-25680.91;;;11.39;nan
5138;BME280;53959;53.626;11.410;2024-01-30T02:56:07;-25663.84;;;10.87;nan
5138;BME280;53959;53.626;11.410;2024-01-30T02:58:35;-25653.13;;;10.55;nan
5138;BME280;53959;53.626;11.410;2024-01-30T03:01:01;-25676.06;;;11.25;nan
5138;BME280;53959;53.626;11.410;2024-01-30T03:03:26;-25684.91;;;11.52;nan
5138;BME280;53959;53.626;11.410;2024-01-30T03:05:51;-25694.78;;;11.82;nan
5138;BME280;53959;53.626;11.410;2024-01-30T03:08:17;-25680.72;;;11.39;nan
5138;BME280;53959;53.626;11.410;2024-01-30T03:10:42;-25700.31;;;11.99;nan
5138;BME280;53959;53.626;11.410;2024-01-30T03:13:07;-25695.13;;;11.83;nan
5138;BME280;53959;53.626;11.410;2024-01-30T03:15:33;-25655.47;;;10.62;nan
5138;BME280;53959;53.626;11.410;2024-01-30T03:17:58;-25695.28;;;11.83;nan
5138;BME280;53959;53.626;11.410;2024-01-30T03:20:23;-25667.84;;;11.00;nan
5138;BME280;53959;53.626;11.410;2024-01-30T03:22:49;-25694.63;;;11.81;nan
5138;BME280;53959;53.626;11.410;2024-01-30T03:25:14;-25715.69;;;12.46;nan
5138;BME280;53959;53.626;11.410;2024-01-30T03:27:40;-25691.09;;;11.71;nan
5138;BME280;53959;53.626;11.410;2024-01-30T03:30:06;-25708.00;;;12.22;nan
5138;BME280;53959;53.626;11.410;2024-01-30T03:32:31;-25658.97;;;10.73;nan
5138;BME280;53959;53.626;11.410;2024-01-30T03:34:56;-25701.97;;;12.04;nan
5138;BME280;53959;53.626;11.410;2024-01-30T03:37:23;-25664.50;;;10.89;nan
5138;BME280;53959;53.626;11.410;2024-01-30T03:39:48;-25650.13;;;10.45;nan
5138;BME280;53959;53.626;11.410;2024-01-30T03:42:14;-25713.34;;;12.38;nan
5138;BME280;53959;53.626;11.410;2024-01-30T03:44:39;-25712.84;;;12.37;nan
5138;BME280;53959;53.626;11.410;2024-01-30T03:47:05;-25682.91;;;11.46;nan
5138;BME280;53959;53.626;11.410;2024-01-30T03:49:30;-25696.28;;;11.86;nan
5138;BME280;53959;53.626;11.410;2024-01-30T03:51:56;-25667.69;;;10.99;nan
5138;BME280;53959;53.626;11.410;2024-01-30T03:54:21;-25683.59;;;11.48;nan
5138;BME280;53959;53.626;11.410;2024-01-30T03:56:46;-25709.84;;;12.28;nan
5138;BME280;53959;53.626;11.410;2024-01-30T03:59:12;-25703.81;;;12.09;nan
5138;BME280;53959;53.626;11.410;2024-01-30T04:01:37;-25690.28;;;11.68;nan
5138;BME280;53959;53.626;11.410;2024-01-30T04:04:03;-25698.97;;;11.95;nan
5138;BME280;53959;53.626;11.410;2024-01-30T04:06:28;-25683.06;;;11.46;nan
5138;BME280;53959;53.626;11.410;2024-01-30T04:08:54;-25673.53;;;11.17;nan
5138;BME280;53959;53.626;11.410;2024-01-30T04:11:19;-25651.78;;;10.51;nan
5138;BME280;53959;53.626;11.410;2024-01-30T04:13:45;-25645.25;;;10.31;nan
5138;BME280;53959;53.626;11.410;2024-01-30T04:16:20;-25662.84;;;10.84;nan
5138;BME280;53959;53.626;11.410;2024-01-30T04:18:46;-25667.00;;;10.97;nan
5138;BME280;53959;53.626;11.410;2024-01-30T04:21:11;-25638.38;;;10.10;nan
5138;BME280;53959;53.626;11.410;2024-01-30T04:23:36;-25654.47;;;10.59;nan
5138;BME280;53959;53.626;11.410;2024-01-30T04:26:02;-25680.91;;;11.39;nan
5138;BME280;53959;53.626;11.410;2024-01-30T04:28:28;-25639.88;;;10.14;nan
5138;BME280;53959;53.626;11.410;2024-01-30T04:30:54;-25659.16;;;10.73;nan
5138;BME280;53959;53.626;11.410;2024-01-30T04:33:19;-25676.06;;;11.25;nan
5138;BME280;53959;53.626;11.410;2024-01-30T04:35:44;-25659.81;;;10.75;nan
5138;BME280;53959;53.626;11.410;2024-01-30T04:38:10;-25660.81;;;10.78;nan
5138;BME280;53959;53.626;11.410;2024-01-30T04:40:35;-25668.34;;;11.01;nan
5138;BME280;53959;53.626;11.410;2024-01-30T04:43:00;-25683.75;;;11.48;nan
5138;BME280;53959;53.626;11.410;2024-01-30T04:45:26;-25679.75;;;11.36;nan
5138;BME280;53959;53.626;11.410;2024-01-30T04:47:51;-25662.66;;;10.84;nan
5138;BME280;53959;53.626;11.410;2024-01-30T04:50:16;-25685.94;;;11.55;nan
5138;BME280;53959;53.626;11.410;2024-01-30T04:52:42;-25723.03;;;12.68;nan
5138;BME280;53959;53.626;11.410;2024-01-30T04:55:07;-25665.19;;;10.91;nan
5138;BME280;53959;53.626;11.410;2024-01-30T04:57:32;-25699.47;;;11.96;nan
5138;BME280;53959;53.626;11.410;2024-01-30T04:59:59;-25693.28;;;11.77;nan
5138;BME280;53959;53.626;11.410;2024-01-30T05:02:24;-25701.66;;;12.03;nan
5138;BME280;53959;53.626;11.410;2024-01-30T05:04:49;-25667.84;;;11.00;nan
5138;BME280;53959;53.626;11.410;2024-01-30T05:07:15;-25682.56;;;11.45;nan
5138;BME280;53959;53.626;11.410;2024-01-30T05:09:40;-25670.53;;;11.08;nan
5138;BME280;53959;53.626;11.410;2024-01-30T05:12:06;-25666.69;;;10.96;nan
5138;BME280;53959;53.626;11.410;2024-01-30T05:14:32;-25665.19;;;10.91;nan
5138;BME280;53959;53.626;11.410;2024-01-30T05:16:57;-25674.72;;;11.21;nan
5138;BME280;53959;53.626;11.410;2024-01-30T05:19:22;-25671.19;;;11.10;nan
5138;BME280;53959;53.626;11.410;2024-01-30T05:21:49;-25692.13;;;11.74;nan
5138;BME280;53959;53.626;11.410;2024-01-30T05:24:14;-25716.03;;;12.47;nan
5138;BME280;53959;53.626;11.410;2024-01-30T05:26:39;-25673.53;;;11.17;nan
5138;BME280;53959;53.626;11.410;2024-01-30T05:29:06;-25672.03;;;11.12;nan
5138;BME280;53959;53.626;11.410;2024-01-30T05:31:31;-25657.97;;;10.69;nan
5138;BME280;53959;53.626;11.410;2024-01-30T05:33:57;-25664.84;;;10.90;nan
5138;BME280;53959;53.626;11.410;2024-01-30T05:36:22;-25697.63;;;11.90;nan
5138;BME280;53959;53.626;11.410;2024-01-30T05:38:47;-25699.97;;;11.98;nan
5138;BME280;53959;53.626;11.410;2024-01-30T05:41:13;-25693.94;;;11.79;nan
5138;BME280;53959;53.626;11.410;2024-01-30T05:43:38;-25678.41;;;11.32;nan
5138;BME280;53959;53.626;11.410;2024-01-30T05:46:04;-25672.53;;;11.14;nan
5138;BME280;53959;53.626;11.410;2024-01-30T05:48:29;-25663.84;;;10.87;nan
5138;BME280;53959;53.626;11.410;2024-01-30T05:50:54;-25630.66;;;9.86;nan
5138;BME280;53959;53.626;11.410;2024-01-30T05:53:20;-25656.97;;;10.66;nan
5138;BME280;53959;53.626;11.410;2024-01-30T05:55:45;-25677.91;;;11.30;nan
5138;BME280;53959;53.626;11.410;2024-01-30T05:58:11;-25629.66;;;9.83;nan
5138;BME280;53959;53.626;11.410;2024-01-30T06:00:36;-25664.84;;;10.90;nan
5138;BME280;53959;53.626;11.410;2024-01-30T06:03:02;-25665.50;;;10.92;nan
5138;BME280;53959;53.626;11.410;2024-01-30T06:05:27;-25666.50;;;10.96;nan
5138;BME280;53959;53.626;11.410;2024-01-30T06:07:52;-25671.19;;;11.10;nan
5138;BME280;53959;53.626;11.410;2024-01-30T06:10:18;-25638.38;;;10.10;nan
5138;BME280;53959;53.626;11.410;2024-01-30T06:12:44;-25655.63;;;10.62;nan
5138;BME280;53959;53.626;11.410;2024-01-30T06:15:09;-25641.72;;;10.20;nan
5138;BME280;53959;53.626;11.410;2024-01-30T06:17:35;-25630.34;;;9.85;nan
5138;BME280;53959;53.626;11.410;2024-01-30T06:20:00;-25646.44;;;10.34;nan
5138;BME280;53959;53.626;11.410;2024-01-30T06:22:26;-25611.72;;;9.29;nan
5138;BME280;53959;53.626;11.410;2024-01-30T06:24:51;-25626.66;;;9.74;nan
5138;BME280;53959;53.626;11.410;2024-01-30T06:27:16;-25623.28;;;9.64;nan
5138;BME280;53959;53.626;11.410;2024-01-30T06:29:43;-25615.91;;;9.41;nan
5138;BME280;53959;53.626;11.410;2024-01-30T06:32:08;-25624.63;;;9.68;nan
5138;BME280;53959;53.626;11.410;2024-01-30T06:34:34;-25629.66;;;9.83;nan
5138;BME280;53959;53.626;11.410;2024-01-30T06:36:59;-25647.44;;;10.37;nan
5138;BME280;53959;53.626;11.410;2024-01-30T06:39:26;-25644.75;;;10.29;nan
5138;BME280;53959;53.626;11.410;2024-01-30T06:41:51;-25635.53;;;10.01;nan
5138;BME280;53959;53.626;11.410;2024-01-30T06:44:16;-25639.72;;;10.14;nan
5138;BME280;53959;53.626;11.410;2024-01-30T06:46:42;-25644.41;;;10.28;nan
5138;BME280;53959;53.626;11.410;2024-01-30T06:49:07;-25632.34;;;9.91;nan
5138;BME280;53959;53.626;11.410;2024-01-30T06:51:32;-25656.97;;;10.66;nan
5138;BME280;53959;53.626;11.410;2024-01-30T06:53:58;-25643.41;;;10.25;nan
5138;BME280;53959;53.626;11.410;2024-01-30T06:56:23;-25667.53;;;10.99;nan
5138;BME280;53959;53.626;11.410;2024-01-30T06:58:49;-25674.88;;;11.21;nan
5138;BME280;53959;53.626;11.410;2024-01-30T07:01:15;-25664.84;;;10.90;nan
5138;BME280;53959;53.626;11.410;2024-01-30T07:03:41;-25688.44;;;11.62;nan
5138;BME280;53959;53.626;11.410;2024-01-30T07:06:07;-25695.97;;;11.85;nan
5138;BME280;53959;53.626;11.410;2024-01-30T07:08:33;-25667.84;;;11.00;nan
5138;BME280;53959;53.626;11.410;2024-01-30T07:10:58;-25645.91;;;10.33;nan
5138;BME280;53959;53.626;11.410;2024-01-30T07:13:24;-25681.56;;;11.41;nan
5138;BME280;53959;53.626;11.410;2024-01-30T07:15:49;-25666.19;;;10.94;nan
5138;BME280;53959;53.626;11.410;2024-01-30T07:18:15;-25663.50;;;10.86;nan
5138;BME280;53959;53.626;11.410;2024-01-30T07:20:40;-25666.50;;;10.96;nan
5138;BME280;53959;53.626;11.410;2024-01-30T07:23:12;-25676.06;;;11.25;nan
5138;BME280;53959;53.626;11.410;2024-01-30T07:25:40;-25658.81;;;10.72;nan
5138;BME280;53959;53.626;11.410;2024-01-30T07:28:07;-25661.81;;;10.81;nan
5138;BME280;53959;53.626;11.410;2024-01-30T07:30:32;-25664.00;;;10.88;nan
5138;BME280;53959;53.626;11.410;2024-01-30T07:32:58;-25658.16;;;10.70;nan
5138;BME280;53959;53.626;11.410;2024-01-30T07:35:23;-25673.03;;;11.15;nan
5138;BME280;53959;53.626;11.410;2024-01-30T07:37:49;-25654.97;;;10.60;nan
5138;BME280;53959;53.626;11.410;2024-01-30T07:40:14;-25660.16;;;10.76;nan
5138;BME280;53959;53.626;11.410;2024-01-30T07:42:39;-25655.81;;;10.63;nan
5138;BME280;53959;53.626;11.410;2024-01-30T07:45:05;-25643.41;;;10.25;nan
5138;BME280;53959;53.626;11.410;2024-01-30T07:47:30;-25638.88;;;10.11;nan
5138;BME280;53959;53.626;11.410;2024-01-30T07:49:56;-25652.13;;;10.52;nan
5138;BME280;53959;53.626;11.410;2024-01-30T07:52:21;-25660.50;;;10.77;nan
5138;BME280;53959;53.626;11.410;2024-01-30T07:54:46;-25649.09;;;10.42;nan
5138;BME280;53959;53.626;11.410;2024-01-30T07:57:12;-25653.13;;;10.55;nan
5138;BME280;53959;53.626;11.410;2024-01-30T07:59:37;-25645.91;;;10.33;nan
5138;BME280;53959;53.626;11.410;2024-01-30T08:02:03;-25646.44;;;10.34;nan
5138;BME280;53959;53.626;11.410;2024-01-30T08:04:28;-25636.38;;;10.04;nan
5138;BME280;53959;53.626;11.410;2024-01-30T08:06:53;-25630.34;;;9.85;nan
5138;BME280;53959;53.626;11.410;2024-01-30T08:09:19;-25638.53;;;10.10;nan
5138;BME280;53959;53.626;11.410;2024-01-30T08:11:44;-25645.41;;;10.31;nan
5138;BME280;53959;53.626;11.410;2024-01-30T08:14:09;-25628.50;;;9.80;nan
5138;BME280;53959;53.626;11.410;2024-01-30T08:16:35;-25631.84;;;9.90;nan
5138;BME280;53959;53.626;11.410;2024-01-30T08:19:00;-25632.69;;;9.92;nan
5138;BME280;53959;53.626;11.410;2024-01-30T08:21:26;-25677.06;;;11.28;nan
5138;BME280;53959;53.626;11.410;2024-01-30T08:23:52;-25665.50;;;10.92;nan
5138;BME280;53959;53.626;11.410;2024-01-30T08:26:17;-25647.09;;;10.36;nan
5138;BME280;53959;53.626;11.410;2024-01-30T08:28:42;-25681.41;;;11.41;nan
5138;BME280;53959;53.626;11.410;2024-01-30T08:31:10;-25656.13;;;10.64;nan
5138;BME280;53959;53.626;11.410;2024-01-30T08:33:35;-25659.81;;;10.75;nan
5138;BME280;53959;53.626;11.410;2024-01-30T08:36:01;-25664.50;;;10.89;nan
5138;BME280;53959;53.626;11.410;2024-01-30T08:38:26;-25661.50;;;10.80;nan
5138;BME280;53959;53.626;11.410;2024-01-30T08:40:51;-25679.41;;;11.35;nan
5138;BME280;53959;53.626;11.410;2024-01-30T08:43:16;-25666.50;;;10.96;nan
5138;BME280;53959;53.626;11.410;2024-01-30T08:45:42;-25656.81;;;10.66;nan
5138;BME280;53959;53.626;11.410;2024-01-30T08:48:07;-25674.88;;;11.21;nan
5138;BME280;53959;53.626;11.410;2024-01-30T08:50:33;-25700.31;;;11.99;nan
5138;BME280;53959;53.626;11.410;2024-01-30T08:52:58;-25675.56;;;11.23;nan
5138;BME280;53959;53.626;11.410;2024-01-30T08:55:24;-25679.75;;;11.36;nan
5138;BME280;53959;53.626;11.410;2024-01-30T08:57:49;-25681.41;;;11.41;nan
5138;BME280;53959;53.626;11.410;2024-01-30T09:00:15;-25727.38;;;12.81;nan
5138;BME280;53959;53.626;11.410;2024-01-30T09:02:40;-25693.44;;;11.78;nan
5138;BME280;53959;53.626;11.410;2024-01-30T09:05:06;-25723.03;;;12.68;nan
5138;BME280;53959;53.626;11.410;2024-01-30T09:07:31;-25685.59;;;11.54;nan
5138;BME280;53959;53.626;11.410;2024-01-30T09:09:56;-25709.66;;;12.27;nan
5138;BME280;53959;53.626;11.410;2024-01-30T09:12:22;-25697.31;;;11.89;nan
5138;BME280;53959;53.626;11.410;2024-01-30T09:14:47;-25709.34;;;12.26;nan
5138;BME280;53959;53.626;11.410;2024-01-30T09:17:12;-25715.00;;;12.44;nan
5138;BME280;53959;53.626;11.410;2024-01-30T09:19:38;-25722.69;;;12.67;nan
5138;BME280;53959;53.626;11.410;2024-01-30T09:22:03;-25705.31;;;12.14;nan
5138;BME280;53959;53.626;11.410;2024-01-30T09:24:29;-25720.38;;;12.60;nan
5138;BME280;53959;53.626;11.410;2024-01-30T09:26:54;-25690.59;;;11.69;nan
5138;BME280;53959;53.626;11.410;2024-01-30T09:29:21;-25709.50;;;12.27;nan
5138;BME280;53959;53.626;11.410;2024-01-30T09:31:46;-25709.50;;;12.27;nan
5138;BME280;53959;53.626;11.410;2024-01-30T09:34:12;-25718.69;;;12.55;nan
5138;BME280;53959;53.626;11.410;2024-01-30T09:36:39;-25728.88;;;12.86;nan
5138;BME280;53959;53.626;11.410;2024-01-30T09:39:04;-25707.66;;;12.21;nan
5138;BME280;53959;53.626;11.410;2024-01-30T09:41:32;-25704.66;;;12.12;nan
5138;BME280;53959;53.626;11.410;2024-01-30T09:43:59;-25747.09;;;13.42;nan
5138;BME280;53959;53.626;11.410;2024-01-30T09:46:26;-25740.56;;;13.22;nan
5138;BME280;53959;53.626;11.410;2024-01-30T09:48:53;-25743.75;;;13.31;nan
5138;BME280;53959;53.626;11.410;2024-01-30T09:51:20;-25722.19;;;12.66;nan
5138;BME280;53959;53.626;11.410;2024-01-30T09:53:47;-25739.06;;;13.17;nan
5138;BME280;53959;53.626;11.410;2024-01-30T09:56:13;-25732.22;;;12.96;nan
5138;BME280;53959;53.626;11.410;2024-01-30T09:58:39;-25713.84;;;12.40;nan
5138;BME280;53959;53.626;11.410;2024-01-30T10:01:05;-25721.69;;;12.64;nan
5138;BME280;53959;53.626;11.410;2024-01-30T10:03:31;-25733.91;;;13.01;nan
5138;BME280;53959;53.626;11.410;2024-01-30T10:05:56;-25748.75;;;13.47;nan
5138;BME280;53959;53.626;11.410;2024-01-30T10:08:22;-25733.56;;;13.00;nan
5138;BME280;53959;53.626;11.410;2024-01-30T10:10:47;-25740.06;;;13.20;nan
5138;BME280;53959;53.626;11.410;2024-01-30T10:13:13;-25737.72;;;13.13;nan
5138;BME280;53959;53.626;11.410;2024-01-30T10:15:39;-25741.25;;;13.24;nan
5138;BME280;53959;53.626;11.410;2024-01-30T10:18:05;-25744.41;;;13.33;nan
5138;BME280;53959;53.626;11.410;2024-01-30T10:20:32;-25752.75;;;13.59;nan
5138;BME280;53959;53.626;11.410;2024-01-30T10:22:58;-25736.56;;;13.09;nan
5138;BME280;53959;53.626;11.410;2024-01-30T10:25:23;-25730.72;;;12.92;nan
5138;BME280;53959;53.626;11.410;2024-01-30T10:27:55;-25754.25;;;13.64;nan
5138;BME280;53959;53.626;11.410;2024-01-30T10:30:24;-25782.78;;;14.51;nan
5138;BME280;53959;53.626;11.410;2024-01-30T10:32:49;-25758.78;;;13.77;nan
5138;BME280;53959;53.626;11.410;2024-01-30T10:35:15;-25740.25;;;13.21;nan
5138;BME280;53959;53.626;11.410;2024-01-30T10:37:43;-25725.22;;;12.75;nan
5138;BME280;53959;53.626;11.410;2024-01-30T10:40:12;-25748.09;;;13.45;nan
5138;BME280;53959;53.626;11.410;2024-01-30T10:42:44;-25743.25;;;13.30;nan
5138;BME280;53959;53.626;11.410;2024-01-30T10:45:11;-25729.06;;;12.86;nan
5138;BME280;53959;53.626;11.410;2024-01-30T10:47:50;-25747.25;;;13.42;nan
5138;BME280;53959;53.626;11.410;2024-01-30T10:50:16;-25764.78;;;13.96;nan
5138;BME280;53959;53.626;11.410;2024-01-30T10:52:42;-25751.09;;;13.54;nan
5138;BME280;53959;53.626;11.410;2024-01-30T10:55:07;-25758.59;;;13.77;nan
5138;BME280;53959;53.626;11.410;2024-01-30T10:57:37;-25778.44;;;14.38;nan
5138;BME280;53959;53.626;11.410;2024-01-30T11:00:05;-25759.44;;;13.79;nan
5138;BME280;53959;53.626;11.410;2024-01-30T11:02:37;-25744.91;;;13.35;nan
5138;BME280;53959;53.626;11.410;2024-01-30T11:05:04;-25790.47;;;14.74;nan
5138;BME280;53959;53.626;11.410;2024-01-30T11:07:30;-25758.25;;;13.76;nan
5138;BME280;53959;53.626;11.410;2024-01-30T11:12:24;-25734.91;;;13.04;nan
5138;BME280;53959;53.626;11.410;2024-01-30T11:15:01;-25759.09;;;13.78;nan
5138;BME280;53959;53.626;11.410;2024-01-30T11:17:28;-25769.63;;;14.11;nan
5138;BME280;53959;53.626;11.410;2024-01-30T11:19:53;-25754.44;;;13.64;nan
5138;BME280;53959;53.626;11.410;2024-01-30T11:22:20;-25764.78;;;13.96;nan
5138;BME280;53959;53.626;11.410;2024-01-30T11:24:47;-25782.78;;;14.51;nan
5138;BME280;53959;53.626;11.410;2024-01-30T11:27:12;-25784.47;;;14.56;nan
5138;BME280;53959;53.626;11.410;2024-01-30T11:29:40;-25767.78;;;14.05;nan
5138;BME280;53959;53.626;11.410;2024-01-30T11:32:05;-25786.44;;;14.62;nan
5138;BME280;53959;53.626;11.410;2024-01-30T11:34:32;-25767.28;;;14.03;nan
5138;BME280;53959;53.626;11.410;2024-01-30T11:37:02;-25799.78;;;15.03;nan
5138;BME280;53959;53.626;11.410;2024-01-30T11:39:31;-25779.94;;;14.42;nan
5138;BME280;53959;53.626;11.410;2024-01-30T11:41:58;-25775.28;;;14.28;nan
5138;BME280;53959;53.626;11.410;2024-01-30T11:44:24;-25786.97;;;14.64;nan
5138;BME280;53959;53.626;11.410;2024-01-30T11:46:51;-25778.78;;;14.39;nan
5138;BME280;53959;53.626;11.410;2024-01-30T11:49:17;-25803.44;;;15.14;nan
5138;BME280;53959;53.626;11.410;2024-01-30T11:51:45;-25778.09;;;14.37;nan
5138;BME280;53959;53.626;11.410;2024-01-30T11:54:10;-25809.13;;;15.32;nan
5138;BME280;53959;53.626;11.410;2024-01-30T11:56:37;-25809.44;;;15.33;nan
5138;BME280;53959;53.626;11.410;2024-01-30T11:59:04;-25805.44;;;15.20;nan
5138;BME280;53959;53.626;11.410;2024-01-30T12:01:31;-25818.59;;;15.61;nan
5138;BME280;53959;53.626;11.410;2024-01-30T12:03:59;-25802.13;;;15.10;nan
5138;BME280;53959;53.626;11.410;2024-01-30T12:06:24;-25819.44;;;15.63;nan
5138;BME280;53959;53.626;11.410;2024-01-30T12:09:01;-25834.41;;;16.09;nan
5138;BME280;53959;53.626;11.410;2024-01-30T12:11:29;-25845.06;;;16.42;nan
5138;BME280;53959;53.626;11.410;2024-01-30T12:13:55;-25849.38;;;16.55;nan
5138;BME280;53959;53.626;11.410;2024-01-30T12:16:21;-25803.28;;;15.14;nan
5138;BME280;53959;53.626;11.410;2024-01-30T12:18:46;-25820.59;;;15.67;nan
5138;BME280;53959;53.626;11.410;2024-01-30T12:21:12;-25839.41;;;16.24;nan
5138;BME280;53959;53.626;11.410;2024-01-30T12:23:37;-25816.44;;;15.54;nan
5138;BME280;53959;53.626;11.410;2024-01-30T12:26:03;-25830.44;;;15.97;nan
5138;BME280;53959;53.626;11.410;2024-01-30T12:28:32;-25825.75;;;15.83;nan
5138;BME280;53959;53.626;11.410;2024-01-30T12:31:04;-25822.78;;;15.73;nan
5138;BME280;53959;53.626;11.410;2024-01-30T12:33:30;-25826.75;;;15.86;nan
5138;BME280;53959;53.626;11.410;2024-01-30T12:36:01;-25824.59;;;15.79;nan
5138;BME280;53959;53.626;11.410;2024-01-30T12:38:27;-25833.41;;;16.06;nan
5138;BME280;53959;53.626;11.410;2024-01-30T12:40:54;-25837.41;;;16.18;nan
5138;BME280;53959;53.626;11.410;2024-01-30T12:43:21;-25836.91;;;16.17;nan
5138;BME280;53959;53.626;11.410;2024-01-30T12:45:47;-25854.03;;;16.69;nan
5138;BME280;53959;53.626;11.410;2024-01-30T12:48:12;-25833.41;;;16.06;nan
5138;BME280;53959;53.626;11.410;2024-01-30T12:50:37;-25864.34;;;17.01;nan
5138;BME280;53959;53.626;11.410;2024-01-30T12:53:03;-25844.72;;;16.41;nan
5138;BME280;53959;53.626;11.410;2024-01-30T12:55:28;-25825.75;;;15.83;nan
5138;BME280;53959;53.626;11.410;2024-01-30T12:57:55;-25831.25;;;15.99;nan
5138;BME280;53959;53.626;11.410;2024-01-30T13:00:21;-25820.28;;;15.66;nan
5138;BME280;53959;53.626;11.410;2024-01-30T13:02:47;-25829.75;;;15.95;nan
5138;BME280;53959;53.626;11.410;2024-01-30T13:05:12;-25831.25;;;15.99;nan
5138;BME280;53959;53.626;11.410;2024-01-30T13:07:38;-25843.06;;;16.36;nan